createdAt,value
2023-02-24T00:03:17.300Z,100580.03
2023-02-24T00:08:19.058Z,100577.53
2023-02-24T00:13:22.338Z,100562.06
2023-02-24T00:18:25.394Z,100566.25
2023-02-24T00:23:27.081Z,100556.69
2023-02-24T00:28:29.047Z,100546.22
2023-02-24T00:33:32.412Z,100543.81
2023-02-24T00:38:35.829Z,100543.03
2023-02-24T00:43:38.928Z,100534.94
2023-02-24T00:48:42.124Z,100526.34
2023-02-24T00:53:44.151Z,100521.16
2023-02-24T00:58:45.878Z,100512.50
2023-02-24T01:03:49.381Z,100509.78
2023-02-24T01:08:52.593Z,100504.56
2023-02-24T01:13:54.376Z,100498.31
2023-02-24T01:18:57.423Z,100502.34
2023-02-24T01:23:59.094Z,100493.66
2023-02-24T01:29:00.831Z,100490.31
2023-02-24T01:34:06.030Z,100478.25
2023-02-24T01:39:10.870Z,100478.44
2023-02-24T01:44:45.891Z,100469.91
2023-02-24T01:49:49.921Z,100459.44
2023-02-24T01:54:55.483Z,100454.44
2023-02-24T02:00:02.260Z,100455.13
2023-02-24T02:05:06.391Z,100447.16
2023-02-24T02:10:09.036Z,100440.13
2023-02-24T02:15:13.005Z,100438.31
2023-02-24T02:20:30.199Z,100431.34
2023-02-24T02:25:38.913Z,100421.72
2023-02-24T02:30:59.914Z,100414.00
2023-02-24T02:36:07.060Z,100406.97
2023-02-24T02:41:11.425Z,100397.56
2023-02-24T02:46:17.567Z,100391.50
2023-02-24T02:51:22.546Z,100391.44
2023-02-24T02:56:25.622Z,100391.44
2023-02-24T03:01:32.104Z,100377.63
2023-02-24T03:06:37.194Z,100383.00
2023-02-24T03:11:39.100Z,100372.72
2023-02-24T03:16:41.613Z,100354.59
2023-02-24T03:21:45.757Z,100351.88
2023-02-24T03:26:50.373Z,100342.47
2023-02-24T03:31:55.490Z,100327.53
2023-02-24T03:36:59.086Z,100322.41
2023-02-24T03:42:02.923Z,100316.34
2023-02-24T03:47:09.541Z,100307.44
2023-02-24T03:52:21.465Z,100299.81
2023-02-24T03:57:27.093Z,100298.94
2023-02-24T04:02:31.180Z,100295.47
2023-02-24T04:07:40.377Z,100287.84
2023-02-24T04:12:47.004Z,100280.09
2023-02-24T04:17:50.833Z,100285.25
2023-02-24T04:22:57.954Z,100280.97
2023-02-24T04:28:00.687Z,100275.84
2023-02-24T04:33:02.570Z,100268.81
2023-02-24T04:38:05.697Z,100256.41
2023-02-24T04:43:08.274Z,100247.63
2023-02-24T04:48:13.006Z,100240.78
2023-02-24T04:53:16.633Z,100237.31
2023-02-24T04:58:19.268Z,100237.13
2023-02-24T05:03:22.276Z,100220.66
2023-02-24T05:08:25.521Z,100210.28
2023-02-24T05:13:28.132Z,100197.44
2023-02-24T05:18:36.997Z,100180.97
2023-02-24T05:23:44.127Z,100173.44
2023-02-24T05:28:49.054Z,100161.97
2023-02-24T05:33:54.585Z,100152.47
2023-02-24T05:39:07.798Z,100144.38
2023-02-24T05:44:11.336Z,100135.34
2023-02-24T05:49:14.317Z,100123.72
2023-02-24T05:54:17.482Z,100119.63
2023-02-24T05:59:21.427Z,100115.41
2023-02-24T06:04:45.816Z,100106.22
2023-02-24T06:09:50.352Z,100103.94
2023-02-24T06:14:52.974Z,100094.97
2023-02-24T06:19:54.698Z,100091.41
2023-02-24T06:24:57.702Z,100076.72
2023-02-24T06:29:59.338Z,100067.16
2023-02-24T06:35:01.853Z,100061.91
2023-02-24T06:40:15.620Z,100054.91
2023-02-24T06:45:17.454Z,100046.28
2023-02-24T06:50:23.286Z,100039.31
2023-02-24T06:55:26.429Z,100029.91
2023-02-24T07:00:42.578Z,100023.00
2023-02-24T07:05:50.154Z,100019.59
2023-02-24T07:10:53.940Z,100019.78
2023-02-24T07:15:55.733Z,100010.97
2023-02-24T07:21:05.021Z,100002.41
2023-02-24T07:26:11.908Z,100002.22
2023-02-24T07:31:15.174Z,99989.38
2023-02-24T07:36:23.019Z,99983.13
2023-02-24T07:41:26.400Z,99970.22
2023-02-24T07:46:28.289Z,99961.63
2023-02-24T07:51:30.062Z,99954.69
2023-02-24T07:56:33.055Z,99941.00
2023-02-24T08:01:39.110Z,99942.03
2023-02-24T08:06:46.225Z,99924.72
2023-02-24T08:11:54.358Z,99914.44
2023-02-24T08:17:02.121Z,99910.13
2023-02-24T08:22:19.230Z,99904.03
2023-02-24T08:27:24.013Z,99888.50
2023-02-24T08:32:26.832Z,99879.97
2023-02-24T08:37:33.413Z,99876.56
2023-02-24T08:42:36.494Z,99867.03
2023-02-24T08:47:38.156Z,99863.59
2023-02-24T08:52:40.404Z,99861.06
2023-02-24T08:57:53.492Z,99855.06
2023-02-24T09:02:56.143Z,99856.66
2023-02-24T09:07:57.784Z,99844.41
2023-02-24T09:13:01.161Z,99846.78
2023-02-24T09:18:07.472Z,99841.34
2023-02-24T09:23:19.887Z,99827.31
2023-02-24T09:28:24.877Z,99817.78
2023-02-24T09:33:27.889Z,99817.56
2023-02-24T09:38:48.344Z,99809.03
2023-02-24T09:43:59.834Z,99794.41
2023-02-24T09:49:05.295Z,99785.69
2023-02-24T09:54:13.486Z,99783.88
2023-02-24T09:59:26.055Z,99768.47
2023-02-24T10:04:53.855Z,99762.41
2023-02-24T10:10:11.092Z,99758.13
2023-02-24T10:15:20.586Z,99751.22
2023-02-24T10:20:30.975Z,99741.75
2023-02-24T10:25:41.667Z,99742.56
2023-02-24T10:30:48.622Z,99739.00
2023-02-24T10:35:50.414Z,99724.25
2023-02-24T10:40:56.676Z,99715.59
2023-02-24T10:46:16.921Z,99707.91
2023-02-24T10:51:21.501Z,99686.44
2023-02-24T10:56:26.774Z,99679.34
2023-02-24T11:01:49.430Z,99668.25
2023-02-24T11:06:55.600Z,99656.13
2023-02-24T11:12:17.607Z,99633.66
2023-02-24T11:17:26.720Z,99629.44
2023-02-24T11:22:32.554Z,99609.63
2023-02-24T11:27:34.235Z,99605.38
2023-02-24T11:32:45.464Z,99582.25
2023-02-24T11:37:53.070Z,99567.59
2023-02-24T11:42:56.914Z,99562.44
2023-02-24T11:48:02.988Z,99549.53
2023-02-24T11:53:10.001Z,99536.53
2023-02-24T11:58:14.627Z,99532.25
2023-02-24T12:03:22.822Z,99519.25
2023-02-24T12:08:26.882Z,99513.38
2023-02-24T12:13:32.274Z,99502.16
2023-02-24T12:18:36.578Z,99490.97
2023-02-24T12:23:39.633Z,99499.72
2023-02-24T12:28:56.830Z,99478.22
2023-02-24T12:34:08.516Z,99486.72
2023-02-24T12:39:12.764Z,99477.28
2023-02-24T12:44:22.756Z,99475.63
2023-02-24T12:49:36.192Z,99463.50
2023-02-24T12:54:40.260Z,99449.66
2023-02-24T12:59:42.030Z,99442.81
2023-02-24T13:04:48.899Z,99433.34
2023-02-24T13:09:52.270Z,99422.00
2023-02-24T13:14:54.018Z,99412.53
2023-02-24T13:19:57.019Z,99413.34
2023-02-24T13:25:12.195Z,99392.69
2023-02-24T13:30:36.923Z,99378.97
2023-02-24T13:35:40.067Z,99379.84
2023-02-24T13:40:41.763Z,99366.91
2023-02-24T13:45:45.116Z,99364.31
2023-02-24T13:51:17.462Z,99363.53
2023-02-24T13:56:28.367Z,99349.81
2023-02-24T14:01:30.059Z,99343.78
2023-02-24T14:06:33.078Z,99340.34
2023-02-24T14:11:35.903Z,99336.03
2023-02-24T14:16:39.672Z,99330.13
2023-02-24T14:21:48.896Z,99320.75
2023-02-24T14:26:51.600Z,99313.91
2023-02-24T14:31:54.419Z,99305.34
2023-02-24T14:36:58.216Z,99294.19
2023-02-24T14:42:12.812Z,99277.00
2023-02-24T14:47:15.052Z,99270.94
2023-02-24T14:52:20.221Z,99269.25
2023-02-24T14:57:22.731Z,99258.97
2023-02-24T15:02:25.818Z,99247.75
2023-02-24T15:07:30.162Z,99244.31
2023-02-24T15:12:33.008Z,99226.22
2023-02-24T15:17:38.401Z,99229.72
2023-02-24T15:22:48.062Z,99209.03
2023-02-24T15:27:50.689Z,99211.63
2023-02-24T15:32:59.785Z,99213.34
2023-02-24T15:38:03.107Z,99200.44
2023-02-24T15:43:08.726Z,99185.78
2023-02-24T15:48:19.632Z,99184.94
2023-02-24T15:53:22.629Z,99184.09
2023-02-24T15:58:25.410Z,99173.75
2023-02-24T16:03:27.077Z,99151.34
2023-02-24T16:08:30.067Z,99154.78
2023-02-24T16:13:31.781Z,99155.63
2023-02-24T16:18:33.509Z,99147.84
2023-02-24T16:23:40.637Z,99146.16
2023-02-24T16:28:42.592Z,99145.28
2023-02-24T16:33:54.088Z,99148.75
2023-02-24T16:38:57.826Z,99153.94
2023-02-24T16:43:59.733Z,99141.84
2023-02-24T16:49:01.430Z,99127.19
2023-02-24T16:54:04.653Z,99130.63
2023-02-24T16:59:06.310Z,99123.75
2023-02-24T17:04:09.929Z,99109.94
2023-02-24T17:09:15.529Z,99105.63
2023-02-24T17:14:18.268Z,99119.44
2023-02-24T17:19:20.311Z,99109.06
2023-02-24T17:24:24.890Z,99107.34
2023-02-24T17:29:26.713Z,99102.16
2023-02-24T17:34:28.522Z,99102.16
2023-02-24T17:39:31.621Z,99103.91
2023-02-24T17:44:33.586Z,99100.44
2023-02-24T17:49:35.355Z,99107.34
2023-02-24T17:54:39.005Z,99102.16
2023-02-24T17:59:42.315Z,99096.13
2023-02-24T18:04:44.026Z,99096.13
2023-02-24T18:09:47.046Z,99098.72
2023-02-24T18:14:59.052Z,99090.94
2023-02-24T18:20:08.702Z,99094.41
2023-02-24T18:25:11.813Z,99090.94
2023-02-24T18:30:17.666Z,99091.81
2023-02-24T18:35:21.829Z,99099.56
2023-02-24T18:40:24.939Z,99091.81
2023-02-24T18:45:26.678Z,99093.50
2023-02-24T18:50:28.453Z,99089.06
2023-02-24T18:55:34.265Z,99085.66
2023-02-24T19:00:35.942Z,99090.00
2023-02-24T19:05:39.005Z,99078.81
2023-02-24T19:10:43.609Z,99091.81
2023-02-24T19:15:45.355Z,99096.13
2023-02-24T19:20:47.133Z,99090.09
2023-02-24T19:25:50.224Z,99094.41
2023-02-24T19:30:54.016Z,99094.41
2023-02-24T19:35:57.983Z,99078.88
2023-02-24T19:41:01.117Z,99084.91
2023-02-24T19:46:06.204Z,99096.13
2023-02-24T19:51:08.904Z,99088.38
2023-02-24T19:56:12.008Z,99088.38
2023-02-24T20:01:13.838Z,99089.22
2023-02-24T20:06:18.913Z,99087.47
2023-02-24T20:11:22.456Z,99090.97
2023-02-24T20:16:25.742Z,99091.81
2023-02-24T20:21:27.984Z,99089.22
2023-02-24T20:26:31.126Z,99101.31
2023-02-24T20:31:32.851Z,99104.75
2023-02-24T20:36:34.753Z,99103.03
2023-02-24T20:41:38.014Z,99097.84
2023-02-24T20:46:39.709Z,99096.13
2023-02-24T20:51:41.608Z,99094.41
2023-02-24T20:56:44.874Z,99094.41
2023-02-24T21:01:47.792Z,99090.09
2023-02-24T21:06:51.796Z,99097.84
2023-02-24T21:11:54.873Z,99095.25
2023-02-24T21:16:56.562Z,99099.56
2023-02-24T21:21:58.208Z,99102.19
2023-02-24T21:27:01.262Z,99104.75
2023-02-24T21:32:03.302Z,99102.16
2023-02-24T21:37:05.900Z,99104.75
2023-02-24T21:42:09.896Z,99101.28
2023-02-24T21:47:11.712Z,99100.44
2023-02-24T21:52:13.482Z,99096.97
2023-02-24T21:57:17.135Z,99090.09
2023-02-24T22:02:18.845Z,99099.59
2023-02-24T22:07:20.450Z,99092.69
2023-02-24T22:12:23.442Z,99096.97
2023-02-24T22:17:25.162Z,99086.63
2023-02-24T22:22:26.890Z,99082.31
2023-02-24T22:27:30.046Z,99083.16
2023-02-24T22:32:32.292Z,99080.56
2023-02-24T22:37:33.996Z,99079.72
2023-02-24T22:42:37.055Z,99079.72
2023-02-24T22:47:38.730Z,99080.59
2023-02-24T22:52:40.681Z,99078.00
2023-02-24T22:57:43.764Z,99072.81
2023-02-24T23:02:45.621Z,99076.28
2023-02-24T23:07:48.479Z,99070.22
2023-02-24T23:12:53.040Z,99078.88
2023-02-24T23:17:55.172Z,99086.63
2023-02-24T23:22:56.947Z,99101.28
2023-02-24T23:28:00.086Z,99102.13
2023-02-24T23:33:03.019Z,99108.19
2023-02-24T23:38:04.748Z,99109.03
2023-02-24T23:43:08.095Z,99124.56
2023-02-24T23:48:10.432Z,99127.97
2023-02-24T23:53:12.127Z,99123.69
2023-02-24T23:58:16.460Z,99123.69
